バルセロナ の空港の天気 - METARとTAF

バルセロナ・エル・プラット国際空港 ( LEBL / BCN ) - スペイン バルセロナ
飛行場実況気象(Metar)
観測時間09/23 14:30 CEST (09/23 12:30 UTC)
風向・風速南 4m/s
視程10km以上
天気現象
少しの雲 雲底高度 610m
全天の4割程度の雲 雲底高度 1070m
気温24℃
湿度69%
気圧1020hPa
METARLEBL 231230Z 17007KT 130V200 9999 FEW020 SCT035 24/18 Q1020 NOSIG
過去の天気等 Google飛行場航空写真 Wunderground天気予報

過去48時間のMETAR

飛行場予報(TAF)
発表時間: 9/23 13:00 CEST (9/23 11:00 UTC)
予報対象時間: 23日14時 CEST ~ 24日14時 CEST
風向・風速南 4m/s
視程10km以上
少しの雲 雲底高度 460m
全天の4割程度の雲 雲底高度 610m
23日14時 CEST ~ 23日16時 CEST に 確率 30% で一時的に
視程4,000m
天気現象しゅう雨
全天の8割程度の雲 雲底高度 460m
全天の4割程度の積乱雲 雲底高度 760m
23日16時 CEST ~ 23日21時 CEST に 確率 30% で一時的に
天気現象雷雨
全天の8割程度の雲 雲底高度 460m
全天の4割程度の積乱雲 雲底高度 760m
23日22時 CEST ~ 23日24時 CEST に徐々に
風向・風速北北西 4m/s
TAF LEBL 231100Z 2312/2412 18008KT 9999 FEW015 SCT020 TX24/2312Z TN17/2406Z
PROB30 TEMPO 2312/2314 4000 SHRA BKN015 SCT025CB
PROB30 TEMPO 2314/2319 TSRA BKN015 SCT025CB
BECMG 2320/2322 34007KT